Time;durP1;ratioP1;P1;durP2;ratioP2;P2;SDS_P1;SDS_P2;PMS_P1;PMS_P2;Temp;Humidity;BMP_temperature;BMP_pressure;BME280_temperature;BME280_humidity;BME280_pressure;Samples;Min_cycle;Max_cycle;Signal;HPM_P1;HPM_P2
2022/12/25 00:01:08;;;;;;;11.17;7.83;;;;;;;;;;5114914;28;20826;-66
2022/12/25 00:03:36;;;;;;;21.07;10.60;;;;;;;;;;5114465;28;20488;-66
2022/12/25 00:06:04;;;;;;;17.50;9.53;;;;;;;;;;5114904;28;20460;-66
2022/12/25 00:08:31;;;;;;;11.70;7.47;;;;;;;;;;5115218;28;20826;-66
2022/12/25 00:10:58;;;;;;;7.53;6.67;;;;;;;;;;5114793;28;20528;-66
2022/12/25 00:13:26;;;;;;;11.80;6.30;;;;;;;;;;5114824;28;20481;-66
2022/12/25 00:15:53;;;;;;;9.10;5.80;;;;;;;;;;5114742;28;20456;-66
2022/12/25 00:18:20;;;;;;;7.50;5.50;;;;;;;;;;5114917;28;20465;-66
2022/12/25 00:20:56;;;;;;;8.67;4.50;;;;;;;;;;5114648;28;20446;-66
2022/12/25 00:23:23;;;;;;;7.30;4.70;;;;;;;;;;5114728;28;20993;-66
2022/12/25 00:25:50;;;;;;;8.60;4.87;;;;;;;;;;5114188;28;20481;-66
2022/12/25 00:28:17;;;;;;;6.60;4.07;;;;;;;;;;5114644;28;20461;-66
2022/12/25 00:30:44;;;;;;;8.83;4.53;;;;;;;;;;5114465;28;20441;-66
2022/12/25 00:33:11;;;;;;;9.23;4.47;;;;;;;;;;5113911;28;20445;-66
2022/12/25 00:35:38;;;;;;;6.57;4.43;;;;;;;;;;5113699;28;20453;-66
2022/12/25 00:38:07;;;;;;;5.47;3.90;;;;;;;;;;5114482;28;20973;-66
2022/12/25 00:40:34;;;;;;;6.30;4.50;;;;;;;;;;5114886;27;20786;-66
2022/12/25 00:43:01;;;;;;;4.40;3.90;;;;;;;;;;5114147;28;20488;-66
2022/12/25 00:45:28;;;;;;;5.50;3.97;;;;;;;;;;5113707;28;20446;-66
2022/12/25 00:47:55;;;;;;;9.40;4.10;;;;;;;;;;5114225;28;20470;-66
2022/12/25 00:50:22;;;;;;;5.27;3.77;;;;;;;;;;5114114;28;20452;-66
2022/12/25 00:52:49;;;;;;;6.60;4.50;;;;;;;;;;5114099;28;20449;-66
2022/12/25 00:55:18;;;;;;;5.00;3.50;;;;;;;;;;5113338;27;20445;-66
2022/12/25 00:57:45;;;;;;;8.23;3.90;;;;;;;;;;5114010;28;20472;-66
2022/12/25 01:00:12;;;;;;;6.70;3.93;;;;;;;;;;5114083;28;20446;-66
2022/12/25 01:02:39;;;;;;;5.00;3.57;;;;;;;;;;5113819;28;20481;-66
2022/12/25 01:05:07;;;;;;;7.23;4.07;;;;;;;;;;5113281;28;20449;-66
2022/12/25 01:07:34;;;;;;;5.40;3.83;;;;;;;;;;5113862;28;20962;-66
2022/12/25 01:12:47;;;;;;;6.73;4.00;;;;;;;;;;5113806;28;20498;-68
2022/12/25 01:15:15;;;;;;;6.80;4.63;;;;;;;;;;5112891;28;20450;-68
2022/12/25 01:17:42;;;;;;;5.17;4.53;;;;;;;;;;5113738;28;20846;-68
2022/12/25 01:20:09;;;;;;;6.80;4.17;;;;;;;;;;5113879;28;20468;-68
2022/12/25 01:22:37;;;;;;;7.93;4.47;;;;;;;;;;5113617;28;21020;-68
2022/12/25 01:25:04;;;;;;;6.20;4.27;;;;;;;;;;5112911;28;20943;-68
2022/12/25 01:27:32;;;;;;;7.97;3.60;;;;;;;;;;5113338;28;20946;-68
2022/12/25 01:30:00;;;;;;;5.97;3.83;;;;;;;;;;5113456;28;20449;-68
2022/12/25 01:32:27;;;;;;;6.00;4.33;;;;;;;;;;5113585;28;20872;-68
2022/12/25 01:34:54;;;;;;;6.43;4.60;;;;;;;;;;5112771;28;20842;-68
2022/12/25 01:37:21;;;;;;;9.30;5.07;;;;;;;;;;5113268;28;20470;-68
2022/12/25 01:39:48;;;;;;;7.37;4.33;;;;;;;;;;5113174;28;20456;-68
2022/12/25 01:42:17;;;;;;;11.13;4.33;;;;;;;;;;5113291;28;20453;-68
2022/12/25 01:45:02;;;;;;;7.50;4.43;;;;;;;;;;5111732;28;20513;-68
2022/12/25 01:47:31;;;;;;;8.30;4.67;;;;;;;;;;5113191;28;20500;-68
2022/12/25 01:49:58;;;;;;;10.73;4.37;;;;;;;;;;5113286;28;20452;-68
2022/12/25 01:52:25;;;;;;;8.90;3.80;;;;;;;;;;5113160;28;20942;-68
2022/12/25 01:54:54;;;;;;;7.20;4.63;;;;;;;;;;5112406;28;20476;-68
2022/12/25 01:57:23;;;;;;;10.50;5.03;;;;;;;;;;5113019;28;20472;-68
2022/12/25 01:59:50;;;;;;;9.40;4.30;;;;;;;;;;5113198;28;20801;-68
2022/12/25 02:02:17;;;;;;;4.80;4.03;;;;;;;;;;5113245;28;20453;-68
2022/12/25 02:04:48;;;;;;;8.27;5.70;;;;;;;;;;5112369;28;20527;-68
2022/12/25 02:07:16;;;;;;;6.77;5.00;;;;;;;;;;5112953;28;20445;-68
2022/12/25 02:09:44;;;;;;;6.60;4.13;;;;;;;;;;5112792;28;20466;-67
2022/12/25 02:12:13;;;;;;;7.37;4.40;;;;;;;;;;5113212;28;20453;-68
2022/12/25 02:14:40;;;;;;;7.17;5.13;;;;;;;;;;5112350;28;20825;-68
2022/12/25 02:17:12;;;;;;;7.80;5.20;;;;;;;;;;5113147;28;20469;-68
2022/12/25 02:19:52;;;;;;;6.20;5.07;;;;;;;;;;5112885;28;20844;-68
2022/12/25 02:22:27;;;;;;;5.97;4.43;;;;;;;;;;5113092;28;20445;-68
2022/12/25 02:24:58;;;;;;;6.10;4.60;;;;;;;;;;5112199;28;20491;-68
2022/12/25 02:27:35;;;;;;;6.93;4.80;;;;;;;;;;5113007;28;20473;-68
2022/12/25 02:30:05;;;;;;;11.23;5.53;;;;;;;;;;5112834;28;20464;-68
2022/12/25 02:32:35;;;;;;;7.83;4.70;;;;;;;;;;5112899;28;20450;-68
2022/12/25 02:35:04;;;;;;;5.90;5.37;;;;;;;;;;5112295;28;20446;-68
2022/12/25 02:37:36;;;;;;;6.03;5.40;;;;;;;;;;5112828;28;20466;-68
2022/12/25 02:40:07;;;;;;;6.33;4.63;;;;;;;;;;5112674;28;20821;-68
2022/12/25 03:07:41;;;;;;;9.20;5.20;;;;;;;;;;5116030;28;20441;-68
2022/12/25 03:12:57;;;;;;;5.00;4.53;;;;;;;;;;5116123;28;20432;-68
2022/12/25 03:18:14;;;;;;;9.67;4.60;;;;;;;;;;5115765;28;20441;-68
2022/12/25 03:28:58;;;;;;;11.63;5.60;;;;;;;;;;5115825;28;20438;-68
2022/12/25 03:31:27;;;;;;;7.70;5.57;;;;;;;;;;5115804;28;20457;-68
2022/12/25 03:36:52;;;;;;;9.60;8.03;;;;;;;;;;5115611;28;20421;-68
2022/12/25 04:37:37;;;;;;;7.60;6.43;;;;;;;;;;5109661;28;20446;-67
2022/12/25 04:40:05;;;;;;;7.70;5.40;;;;;;;;;;5109607;28;20962;-67
2022/12/25 04:42:32;;;;;;;7.33;5.20;;;;;;;;;;5109659;28;20450;-67
2022/12/25 04:44:59;;;;;;;11.70;6.20;;;;;;;;;;5108596;28;20493;-67
2022/12/25 04:47:26;;;;;;;8.87;5.00;;;;;;;;;;5109415;28;20470;-67
2022/12/25 04:49:54;;;;;;;7.97;5.80;;;;;;;;;;5109277;28;20450;-67
2022/12/25 04:52:21;;;;;;;10.37;5.73;;;;;;;;;;5109455;28;20947;-67
2022/12/25 04:54:48;;;;;;;9.33;5.40;;;;;;;;;;5104653;28;20963;-67
2022/12/25 04:57:16;;;;;;;8.33;5.27;;;;;;;;;;5095734;28;20833;-67
2022/12/25 04:59:43;;;;;;;7.13;4.80;;;;;;;;;;5095580;28;20450;-67
2022/12/25 05:02:10;;;;;;;7.87;5.33;;;;;;;;;;5095668;28;20446;-67
2022/12/25 05:04:37;;;;;;;6.00;4.70;;;;;;;;;;5094836;28;20482;-67
2022/12/25 05:07:06;;;;;;;8.37;5.50;;;;;;;;;;5095323;28;20442;-67
2022/12/25 05:09:33;;;;;;;7.63;5.37;;;;;;;;;;5095535;28;20952;-67
2022/12/25 05:12:00;;;;;;;8.50;5.50;;;;;;;;;;5095429;28;20500;-67
2022/12/25 05:14:27;;;;;;;8.83;5.63;;;;;;;;;;5094689;28;20457;-67
2022/12/25 05:16:54;;;;;;;6.30;5.23;;;;;;;;;;5095115;28;20451;-67
2022/12/25 05:19:21;;;;;;;6.40;5.20;;;;;;;;;;5095293;28;20481;-67
2022/12/25 05:21:48;;;;;;;6.93;5.80;;;;;;;;;;5095354;28;20454;-67
2022/12/25 05:24:16;;;;;;;11.97;5.97;;;;;;;;;;5094529;28;20489;-67
2022/12/25 05:26:44;;;;;;;7.50;5.23;;;;;;;;;;5095079;28;20797;-67
2022/12/25 05:29:11;;;;;;;9.40;6.57;;;;;;;;;;5095065;28;20888;-67
2022/12/25 05:31:38;;;;;;;7.80;6.13;;;;;;;;;;5095024;28;20928;-67
2022/12/25 05:34:05;;;;;;;6.00;4.70;;;;;;;;;;5094476;28;20472;-67
2022/12/25 05:36:32;;;;;;;10.37;6.03;;;;;;;;;;5095015;28;20461;-67
2022/12/25 05:38:59;;;;;;;6.13;5.03;;;;;;;;;;5094737;28;20466;-67
2022/12/25 05:41:27;;;;;;;7.50;5.30;;;;;;;;;;5095029;28;20450;-67
2022/12/25 05:43:54;;;;;;;6.20;4.70;;;;;;;;;;5093876;28;20498;-67
2022/12/25 05:46:22;;;;;;;6.80;5.83;;;;;;;;;;5094791;28;20457;-67
2022/12/25 05:48:49;;;;;;;9.50;6.40;;;;;;;;;;5094615;28;20470;-67
2022/12/25 05:51:16;;;;;;;7.77;4.83;;;;;;;;;;5094651;28;20451;-67
2022/12/25 05:53:44;;;;;;;7.47;5.47;;;;;;;;;;5093973;28;20988;-67
2022/12/25 05:56:11;;;;;;;6.30;4.70;;;;;;;;;;5094604;28;20454;-67
2022/12/25 05:58:40;;;;;;;8.10;5.00;;;;;;;;;;5094328;28;20474;-67
2022/12/25 06:01:11;;;;;;;7.40;4.73;;;;;;;;;;5094509;28;20454;-67
2022/12/25 06:03:38;;;;;;;6.47;4.80;;;;;;;;;;5093851;28;20494;-67
2022/12/25 06:06:06;;;;;;;6.70;4.70;;;;;;;;;;5094137;28;20562;-67
2022/12/25 06:08:33;;;;;;;6.00;4.70;;;;;;;;;;5093728;28;20581;-67
2022/12/25 06:11:03;;;;;;;7.17;4.70;;;;;;;;;;5094195;28;20442;-67
2022/12/25 06:13:30;;;;;;;5.07;4.37;;;;;;;;;;5093661;28;20514;-68
2022/12/25 06:15:59;;;;;;;5.93;4.50;;;;;;;;;;5094439;28;20459;-67
2022/12/25 06:18:26;;;;;;;5.70;4.10;;;;;;;;;;5094182;28;20474;-67
2022/12/25 06:20:53;;;;;;;5.70;4.10;;;;;;;;;;5094010;28;20454;-67
2022/12/25 06:23:20;;;;;;;6.20;4.40;;;;;;;;;;5093831;28;20447;-67
2022/12/25 06:25:47;;;;;;;5.47;3.80;;;;;;;;;;5093422;28;20801;-67
2022/12/25 06:28:14;;;;;;;6.93;4.20;;;;;;;;;;5093999;28;20471;-67
2022/12/25 06:30:41;;;;;;;4.97;4.10;;;;;;;;;;5093899;28;20451;-67
2022/12/25 06:33:09;;;;;;;7.20;4.10;;;;;;;;;;5094042;28;20454;-67
2022/12/25 06:35:39;;;;;;;7.17;4.30;;;;;;;;;;5093105;28;20454;-67
2022/12/25 06:38:06;;;;;;;24.67;17.53;;;;;;;;;;5093993;28;20524;-67
2022/12/25 06:40:33;;;;;;;16.50;9.63;;;;;;;;;;5093822;28;20962;-67
2022/12/25 06:43:00;;;;;;;21.20;12.07;;;;;;;;;;5093668;28;20454;-67
2022/12/25 06:45:27;;;;;;;20.30;12.00;;;;;;;;;;5092990;28;20489;-67
2022/12/25 06:47:54;;;;;;;24.70;13.37;;;;;;;;;;5093406;28;20471;-67
2022/12/25 06:50:23;;;;;;;13.57;10.57;;;;;;;;;;5093618;28;20455;-67
2022/12/25 06:52:50;;;;;;;16.13;10.93;;;;;;;;;;5093388;28;20818;-67
2022/12/25 06:55:17;;;;;;;10.43;7.83;;;;;;;;;;5092869;28;20469;-67
2022/12/25 06:57:44;;;;;;;12.90;9.07;;;;;;;;;;5093106;28;20466;-67
2022/12/25 07:00:11;;;;;;;10.10;9.17;;;;;;;;;;5093356;28;20447;-67
2022/12/25 07:02:38;;;;;;;15.57;14.07;;;;;;;;;;5093384;28;20474;-67
2022/12/25 07:05:06;;;;;;;52.10;24.43;;;;;;;;;;5092404;28;20489;-67
2022/12/25 07:07:34;;;;;;;18.83;10.37;;;;;;;;;;5093207;28;20815;-67
2022/12/25 07:10:01;;;;;;;11.17;8.63;;;;;;;;;;5093146;28;20455;-67
2022/12/25 07:12:28;;;;;;;12.23;8.40;;;;;;;;;;5093290;28;20450;-67
2022/12/25 07:14:56;;;;;;;14.27;8.00;;;;;;;;;;5092484;28;20446;-67
2022/12/25 07:17:23;;;;;;;14.67;10.10;;;;;;;;;;5093055;28;20467;-67
2022/12/25 07:19:51;;;;;;;15.43;11.33;;;;;;;;;;5092764;28;20450;-67
2022/12/25 07:22:18;;;;;;;16.43;11.10;;;;;;;;;;5092961;28;20455;-67
2022/12/25 07:24:46;;;;;;;14.37;9.60;;;;;;;;;;5092158;28;20490;-67
2022/12/25 07:27:13;;;;;;;13.07;8.17;;;;;;;;;;5093054;28;20443;-67
2022/12/25 07:29:41;;;;;;;6.83;5.87;;;;;;;;;;5093021;28;20884;-67
2022/12/25 07:32:08;;;;;;;9.53;6.17;;;;;;;;;;5092029;28;20470;-67
2022/12/25 07:34:35;;;;;;;6.90;5.37;;;;;;;;;;5092444;28;20447;-67
2022/12/25 07:37:02;;;;;;;9.57;5.63;;;;;;;;;;5092787;28;20458;-67
2022/12/25 07:39:29;;;;;;;7.50;4.87;;;;;;;;;;5092766;28;20454;-67
2022/12/25 07:41:58;;;;;;;11.63;5.17;;;;;;;;;;5092727;28;20532;-67
2022/12/25 07:44:25;;;;;;;11.80;9.10;;;;;;;;;;5092024;28;20486;-67
2022/12/25 07:46:52;;;;;;;13.67;9.10;;;;;;;;;;5092671;28;20466;-67
2022/12/25 07:49:19;;;;;;;8.60;5.87;;;;;;;;;;5093053;28;20870;-67
2022/12/25 07:51:46;;;;;;;9.90;6.50;;;;;;;;;;5092909;28;20459;-67
2022/12/25 07:54:13;;;;;;;7.23;5.37;;;;;;;;;;5092167;28;20449;-67
2022/12/25 07:56:40;;;;;;;13.13;7.17;;;;;;;;;;5092676;28;20451;-67
2022/12/25 07:59:09;;;;;;;6.93;5.10;;;;;;;;;;5092429;28;20479;-67
2022/12/25 08:01:36;;;;;;;8.67;5.70;;;;;;;;;;5091952;28;20446;-67
2022/12/25 08:04:03;;;;;;;4.40;3.93;;;;;;;;;;5092241;28;20481;-67
2022/12/25 08:06:31;;;;;;;6.57;4.37;;;;;;;;;;5093183;28;20450;-67
2022/12/25 08:09:02;;;;;;;5.83;4.10;;;;;;;;;;5092454;28;20470;-67
2022/12/25 08:11:29;;;;;;;6.10;4.00;;;;;;;;;;5092560;28;20457;-67
2022/12/25 08:13:57;;;;;;;6.37;4.23;;;;;;;;;;5092715;28;20950;-67
2022/12/25 08:16:25;;;;;;;5.73;4.07;;;;;;;;;;5092403;28;20451;-67
2022/12/25 08:18:52;;;;;;;6.13;3.03;;;;;;;;;;5092475;28;20479;-67
2022/12/25 08:21:19;;;;;;;4.97;3.50;;;;;;;;;;5092542;28;20450;-67
2022/12/25 08:23:47;;;;;;;13.80;4.03;;;;;;;;;;5092300;28;20442;-67
2022/12/25 08:26:15;;;;;;;7.23;5.30;;;;;;;;;;5092674;28;20851;-67
2022/12/25 08:28:42;;;;;;;4.63;3.70;;;;;;;;;;5092258;28;20478;-67
2022/12/25 08:31:10;;;;;;;7.73;3.40;;;;;;;;;;5094768;28;20450;-67
2022/12/25 08:33:38;;;;;;;4.03;2.97;;;;;;;;;;5095951;28;20451;-68
2022/12/25 08:36:06;;;;;;;6.80;3.27;;;;;;;;;;5095954;28;20446;-68
2022/12/25 08:38:34;;;;;;;4.63;3.43;;;;;;;;;;5095857;28;20470;-68
2022/12/25 08:41:01;;;;;;;5.50;3.70;;;;;;;;;;5096076;28;20928;-68
2022/12/25 08:43:28;;;;;;;4.07;2.77;;;;;;;;;;5095821;28;20469;-68
2022/12/25 08:45:55;;;;;;;4.00;2.90;;;;;;;;;;5095771;28;20486;-68
2022/12/25 08:48:22;;;;;;;4.97;3.73;;;;;;;;;;5096303;28;20478;-68
2022/12/25 08:50:51;;;;;;;4.17;2.80;;;;;;;;;;5095690;28;20458;-68
2022/12/25 08:53:19;;;;;;;3.87;3.57;;;;;;;;;;5095844;28;20443;-68
2022/12/25 08:55:46;;;;;;;4.67;4.10;;;;;;;;;;5095388;28;20469;-68
2022/12/25 08:58:15;;;;;;;6.13;3.40;;;;;;;;;;5095676;28;20471;-68
2022/12/25 09:00:42;;;;;;;6.10;4.80;;;;;;;;;;5095549;28;20824;-68
2022/12/25 09:03:09;;;;;;;5.60;3.60;;;;;;;;;;5095650;28;20451;-68
2022/12/25 09:05:36;;;;;;;8.07;5.13;;;;;;;;;;5095196;28;20482;-67
2022/12/25 09:08:05;;;;;;;7.53;6.20;;;;;;;;;;5095254;28;20474;-68
2022/12/25 09:10:35;;;;;;;5.93;4.10;;;;;;;;;;5095507;28;20952;-68
2022/12/25 09:13:02;;;;;;;8.93;5.60;;;;;;;;;;5095345;28;20459;-67
2022/12/25 09:15:29;;;;;;;7.33;5.30;;;;;;;;;;5094877;28;20446;-68
2022/12/25 09:17:56;;;;;;;12.00;4.60;;;;;;;;;;5095146;28;20481;-68
2022/12/25 09:20:23;;;;;;;10.67;4.53;;;;;;;;;;5095276;28;20497;-68
2022/12/25 09:22:50;;;;;;;8.10;3.97;;;;;;;;;;5094997;28;20450;-68
2022/12/25 09:25:19;;;;;;;6.30;3.80;;;;;;;;;;5093440;28;20490;-68
2022/12/25 09:27:46;;;;;;;6.00;3.77;;;;;;;;;;5094911;28;20474;-68
2022/12/25 09:30:13;;;;;;;6.50;3.70;;;;;;;;;;5095155;28;20447;-68
2022/12/25 09:32:40;;;;;;;7.40;5.27;;;;;;;;;;5093265;28;20462;-67
2022/12/25 09:35:08;;;;;;;9.57;4.80;;;;;;;;;;5094385;28;20458;-67
2022/12/25 09:37:35;;;;;;;4.80;3.40;;;;;;;;;;5092989;28;20466;-67
2022/12/25 09:40:02;;;;;;;6.00;3.53;;;;;;;;;;5094201;28;20482;-68
2022/12/25 09:42:33;;;;;;;7.87;3.60;;;;;;;;;;5094740;28;20447;-67
2022/12/25 09:45:03;;;;;;;10.47;4.83;;;;;;;;;;5094039;28;20490;-67
2022/12/25 09:47:31;;;;;;;8.87;5.00;;;;;;;;;;5094584;28;20974;-67
2022/12/25 09:50:03;;;;;;;7.07;4.13;;;;;;;;;;5094657;28;20447;-68
2022/12/25 09:52:36;;;;;;;5.80;3.70;;;;;;;;;;5094886;28;20450;-68
2022/12/25 09:55:06;;;;;;;7.00;4.43;;;;;;;;;;5094117;28;20458;-67
2022/12/25 09:57:34;;;;;;;10.67;5.43;;;;;;;;;;5094895;28;20467;-69
2022/12/25 10:00:02;;;;;;;8.70;5.43;;;;;;;;;;5094506;28;20454;-69
2022/12/25 10:02:50;;;;;;;5.77;3.00;;;;;;;;;;5094168;28;21043;-70
2022/12/25 10:05:24;;;;;;;8.53;4.43;;;;;;;;;;5088806;28;20616;-69
2022/12/25 10:07:57;;;;;;;3.83;2.33;;;;;;;;;;5092802;28;20478;-69
2022/12/25 10:10:31;;;;;;;12.53;3.80;;;;;;;;;;5094255;28;20446;-69
2022/12/25 10:13:04;;;;;;;3.90;2.93;;;;;;;;;;5092258;28;20458;-69
2022/12/25 10:15:34;;;;;;;4.87;3.30;;;;;;;;;;5093700;28;20447;-69
2022/12/25 10:18:06;;;;;;;5.60;3.50;;;;;;;;;;5093987;28;20482;-67
2022/12/25 10:20:38;;;;;;;3.90;2.60;;;;;;;;;;5094251;28;20443;-67
2022/12/25 10:23:10;;;;;;;7.20;3.20;;;;;;;;;;5093942;28;20455;-69
2022/12/25 10:25:37;;;;;;;9.43;3.47;;;;;;;;;;5093559;28;20493;-69
2022/12/25 10:28:13;;;;;;;6.73;3.40;;;;;;;;;;5094039;28;20471;-70
2022/12/25 10:30:40;;;;;;;7.13;2.60;;;;;;;;;;5094251;28;20448;-69
2022/12/25 10:33:07;;;;;;;8.70;2.67;;;;;;;;;;5093875;28;20439;-70
2022/12/25 10:35:34;;;;;;;5.27;2.90;;;;;;;;;;5093370;28;20450;-70
2022/12/25 10:38:03;;;;;;;6.37;3.70;;;;;;;;;;5093603;28;20471;-69
2022/12/25 10:40:34;;;;;;;7.97;3.50;;;;;;;;;;5093873;28;20455;-69
2022/12/25 10:43:04;;;;;;;4.53;2.80;;;;;;;;;;5092256;28;20954;-69
2022/12/25 10:45:42;;;;;;;6.00;3.40;;;;;;;;;;5093375;28;20477;-70
2022/12/25 10:48:13;;;;;;;70.97;42.07;;;;;;;;;;5091222;28;20553;-70
2022/12/25 10:50:43;;;;;;;4.93;3.03;;;;;;;;;;5093658;28;20446;-69
2022/12/25 10:53:17;;;;;;;8.50;5.00;;;;;;;;;;5093308;28;20447;-69
2022/12/25 10:55:53;;;;;;;10.53;7.27;;;;;;;;;;5092950;28;20461;-70
2022/12/25 10:58:21;;;;;;;6.37;4.00;;;;;;;;;;5093640;28;20956;-69
2022/12/25 11:00:53;;;;;;;11.00;4.20;;;;;;;;;;5093313;28;20561;-69
2022/12/25 11:03:22;;;;;;;7.40;3.27;;;;;;;;;;5093372;28;20455;-69
2022/12/25 11:05:50;;;;;;;7.37;2.70;;;;;;;;;;5092942;28;21030;-69
2022/12/25 11:08:19;;;;;;;5.57;3.20;;;;;;;;;;5093208;28;20524;-69
2022/12/25 11:10:52;;;;;;;5.17;3.20;;;;;;;;;;5093134;28;20497;-69
2022/12/25 11:13:23;;;;;;;3.17;2.67;;;;;;;;;;5093248;28;20453;-70
2022/12/25 11:15:50;;;;;;;3.50;3.07;;;;;;;;;;5092703;28;20486;-69
2022/12/25 11:18:20;;;;;;;4.33;3.23;;;;;;;;;;5093190;28;20979;-70
2022/12/25 11:20:51;;;;;;;5.90;3.10;;;;;;;;;;5093133;28;20447;-70
2022/12/25 11:23:19;;;;;;;4.23;2.50;;;;;;;;;;5093067;28;20447;-69
2022/12/25 11:25:55;;;;;;;7.40;3.63;;;;;;;;;;5092434;28;20521;-70
2022/12/25 11:28:22;;;;;;;3.87;3.03;;;;;;;;;;5092925;28;20473;-70
2022/12/25 11:30:53;;;;;;;3.37;2.50;;;;;;;;;;5092987;28;20828;-70
2022/12/25 11:33:24;;;;;;;4.10;3.10;;;;;;;;;;5093013;28;20447;-70
2022/12/25 11:35:52;;;;;;;4.30;3.10;;;;;;;;;;5092430;28;20451;-70
2022/12/25 11:38:20;;;;;;;3.20;2.50;;;;;;;;;;5092841;28;20466;-70
2022/12/25 11:40:49;;;;;;;6.40;2.90;;;;;;;;;;5092887;28;20486;-69
2022/12/25 11:43:21;;;;;;;4.30;3.20;;;;;;;;;;5092727;28;20467;-70
2022/12/25 11:45:50;;;;;;;8.90;3.53;;;;;;;;;;5092340;28;20485;-70
2022/12/25 11:48:19;;;;;;;6.57;4.10;;;;;;;;;;5092570;28;20477;-70
2022/12/25 11:50:49;;;;;;;10.13;4.30;;;;;;;;;;5092748;28;20857;-70
2022/12/25 11:53:20;;;;;;;4.43;3.40;;;;;;;;;;5093042;28;20454;-70
2022/12/25 11:55:53;;;;;;;10.23;4.30;;;;;;;;;;5092344;28;20451;-70
2022/12/25 11:58:23;;;;;;;6.37;3.13;;;;;;;;;;5092646;28;20474;-70
2022/12/25 12:00:51;;;;;;;8.33;4.40;;;;;;;;;;5092456;28;20446;-70
2022/12/25 12:03:21;;;;;;;5.00;3.70;;;;;;;;;;5092833;28;20935;-71
2022/12/25 12:05:52;;;;;;;4.90;3.30;;;;;;;;;;5094085;28;20519;-70
2022/12/25 12:08:19;;;;;;;6.00;3.57;;;;;;;;;;5096643;28;20467;-68
2022/12/25 12:10:55;;;;;;;9.90;4.53;;;;;;;;;;5096594;28;20446;-68
2022/12/25 12:13:32;;;;;;;7.03;3.60;;;;;;;;;;5096428;28;20539;-68
2022/12/25 12:15:59;;;;;;;7.73;3.90;;;;;;;;;;5096449;28;20453;-68
2022/12/25 12:18:30;;;;;;;9.63;4.03;;;;;;;;;;5096212;28;20474;-69
2022/12/25 12:20:59;;;;;;;11.37;8.10;;;;;;;;;;5096364;28;20866;-70
2022/12/25 12:23:28;;;;;;;5.53;3.23;;;;;;;;;;5096263;28;20463;-69
2022/12/25 12:25:55;;;;;;;8.90;4.87;;;;;;;;;;5095996;28;20482;-69
2022/12/25 12:28:23;;;;;;;8.27;3.77;;;;;;;;;;5096242;28;20470;-70
2022/12/25 12:30:58;;;;;;;15.60;9.10;;;;;;;;;;5094339;28;20473;-70
2022/12/25 12:33:27;;;;;;;12.43;4.00;;;;;;;;;;5095796;28;20497;-69
2022/12/25 12:35:54;;;;;;;7.73;4.70;;;;;;;;;;5094548;28;20448;-69
2022/12/25 12:38:24;;;;;;;6.40;3.67;;;;;;;;;;5092404;28;20478;-68
2022/12/25 12:40:56;;;;;;;4.93;3.43;;;;;;;;;;5095001;28;20875;-68
2022/12/25 12:43:32;;;;;;;5.37;4.13;;;;;;;;;;5096083;28;20466;-68
2022/12/25 12:46:03;;;;;;;10.10;5.93;;;;;;;;;;5095348;28;20909;-68
2022/12/25 12:48:30;;;;;;;8.40;4.03;;;;;;;;;;5095913;28;20470;-67
2022/12/25 12:51:04;;;;;;;6.17;3.43;;;;;;;;;;5095793;28;20461;-67
2022/12/25 12:53:33;;;;;;;8.70;4.17;;;;;;;;;;5095656;28;20804;-68
2022/12/25 12:56:11;;;;;;;9.53;3.33;;;;;;;;;;5095818;28;20827;-67
2022/12/25 12:58:43;;;;;;;4.53;3.00;;;;;;;;;;5095509;28;20480;-67
2022/12/25 13:01:14;;;;;;;5.00;3.60;;;;;;;;;;5095854;28;20458;-67
2022/12/25 13:03:56;;;;;;;5.10;3.63;;;;;;;;;;5095375;28;20450;-68
2022/12/25 13:06:29;;;;;;;10.07;3.50;;;;;;;;;;5093317;28;20578;-67
2022/12/25 13:09:05;;;;;;;5.40;3.63;;;;;;;;;;5095559;28;20470;-67
2022/12/25 13:11:37;;;;;;;5.07;3.27;;;;;;;;;;5095636;28;20924;-68
2022/12/25 13:14:05;;;;;;;5.53;3.60;;;;;;;;;;5095055;28;20454;-68
2022/12/25 13:16:34;;;;;;;4.67;3.60;;;;;;;;;;5095051;28;20458;-69
2022/12/25 13:19:05;;;;;;;66.87;35.40;;;;;;;;;;5095375;28;20478;-69
2022/12/25 13:21:33;;;;;;;7.43;4.30;;;;;;;;;;5095581;28;20520;-69
2022/12/25 13:24:02;;;;;;;7.60;4.50;;;;;;;;;;5094925;28;20450;-69
2022/12/25 13:26:29;;;;;;;19.73;10.20;;;;;;;;;;5095025;28;20486;-69
2022/12/25 13:28:56;;;;;;;6.47;4.40;;;;;;;;;;5095005;28;20477;-69
2022/12/25 13:31:26;;;;;;;42.90;21.30;;;;;;;;;;5093275;28;20465;-69
2022/12/25 13:33:56;;;;;;;20.83;11.27;;;;;;;;;;5094740;28;20534;-70
2022/12/25 13:36:24;;;;;;;8.50;4.60;;;;;;;;;;5095344;28;20553;-69
2022/12/25 13:38:52;;;;;;;17.37;9.60;;;;;;;;;;5093895;28;20477;-69
2022/12/25 13:44:23;;;;;;;8.07;4.50;;;;;;;;;;5032179;28;20433;-69
2022/12/25 13:46:50;;;;;;;8.70;5.47;;;;;;;;;;5032598;28;20490;-70
2022/12/25 13:49:18;;;;;;;4.43;3.57;;;;;;;;;;5060617;28;20548;-69
2022/12/25 13:51:46;;;;;;;9.60;3.77;;;;;;;;;;5094467;28;20454;-67
2022/12/25 13:54:14;;;;;;;6.60;3.80;;;;;;;;;;5094291;28;20935;-67
2022/12/25 13:56:48;;;;;;;6.47;3.73;;;;;;;;;;5094571;28;20454;-67
2022/12/25 13:59:16;;;;;;;5.73;3.60;;;;;;;;;;5094786;28;20579;-70
2022/12/25 14:01:44;;;;;;;8.10;3.53;;;;;;;;;;5094395;28;20462;-70
2022/12/25 14:04:14;;;;;;;7.97;4.60;;;;;;;;;;5094012;28;20465;-69
2022/12/25 14:06:41;;;;;;;7.10;3.90;;;;;;;;;;5093472;28;20482;-69
2022/12/25 14:09:10;;;;;;;7.70;4.07;;;;;;;;;;5094118;28;20478;-69
2022/12/25 14:11:38;;;;;;;7.27;4.17;;;;;;;;;;5093412;28;20461;-69
2022/12/25 14:14:08;;;;;;;6.40;3.70;;;;;;;;;;5093480;28;20455;-69
2022/12/25 14:16:35;;;;;;;9.00;3.23;;;;;;;;;;5094282;28;20447;-69
2022/12/25 14:19:03;;;;;;;6.90;4.20;;;;;;;;;;5094061;28;20916;-69
2022/12/25 14:21:31;;;;;;;5.17;3.47;;;;;;;;;;5094202;28;20454;-69
2022/12/25 14:23:59;;;;;;;6.40;3.70;;;;;;;;;;5093665;28;20447;-69
2022/12/25 14:26:27;;;;;;;9.23;4.03;;;;;;;;;;5094169;28;20489;-69
2022/12/25 14:28:55;;;;;;;6.50;3.47;;;;;;;;;;5092931;28;20474;-69
2022/12/25 14:31:24;;;;;;;5.23;3.20;;;;;;;;;;5094365;28;20446;-69
2022/12/25 14:33:52;;;;;;;7.40;3.47;;;;;;;;;;5093639;28;20871;-67
2022/12/25 14:36:20;;;;;;;5.37;2.90;;;;;;;;;;5093851;28;20486;-67
2022/12/25 14:38:55;;;;;;;5.47;3.63;;;;;;;;;;5093742;28;20463;-67
2022/12/25 14:41:32;;;;;;;8.27;3.13;;;;;;;;;;5094001;28;20442;-67
2022/12/25 14:43:59;;;;;;;9.33;4.57;;;;;;;;;;5091815;28;20544;-69
2022/12/25 14:46:29;;;;;;;154.53;61.87;;;;;;;;;;5093723;28;20991;-67
2022/12/25 14:48:59;;;;;;;294.30;110.63;;;;;;;;;;5092221;28;20475;-67
2022/12/25 14:51:27;;;;;;;555.23;278.33;;;;;;;;;;5093526;28;21016;-67
2022/12/25 14:53:55;;;;;;;11.60;7.20;;;;;;;;;;5092866;28;20508;-67
2022/12/25 14:56:23;;;;;;;46.83;21.83;;;;;;;;;;5093555;28;20451;-67
2022/12/25 14:58:51;;;;;;;18.93;6.93;;;;;;;;;;5093304;28;20470;-67
2022/12/25 15:01:21;;;;;;;61.07;41.27;;;;;;;;;;5093436;28;20477;-67
2022/12/25 15:03:49;;;;;;;8.53;3.43;;;;;;;;;;5092885;28;20458;-66
2022/12/25 15:06:19;;;;;;;9.03;5.50;;;;;;;;;;5093268;28;20443;-67
2022/12/25 15:08:55;;;;;;;13.87;7.80;;;;;;;;;;5093128;28;20474;-67
2022/12/25 15:11:22;;;;;;;9.10;4.73;;;;;;;;;;5093540;28;20951;-67
2022/12/25 15:13:49;;;;;;;10.20;4.60;;;;;;;;;;5092703;28;20964;-67
2022/12/25 15:16:18;;;;;;;8.20;5.40;;;;;;;;;;5093336;28;20474;-67
2022/12/25 15:18:46;;;;;;;7.83;4.37;;;;;;;;;;5091641;28;20462;-67
2022/12/25 15:21:17;;;;;;;16.83;4.40;;;;;;;;;;5093115;28;20461;-67
2022/12/25 15:23:44;;;;;;;7.27;4.97;;;;;;;;;;5091248;28;20459;-67
2022/12/25 15:26:13;;;;;;;10.73;4.80;;;;;;;;;;5093106;28;20521;-66
2022/12/25 15:28:40;;;;;;;8.87;4.07;;;;;;;;;;5093011;28;20475;-66
2022/12/25 15:31:16;;;;;;;10.93;5.27;;;;;;;;;;5093081;28;20455;-67
2022/12/25 15:33:43;;;;;;;10.63;6.27;;;;;;;;;;5092393;28;20456;-67
2022/12/25 15:36:10;;;;;;;17.97;6.00;;;;;;;;;;5092992;28;20461;-67
2022/12/25 15:38:39;;;;;;;14.20;7.07;;;;;;;;;;5092621;28;20469;-66
2022/12/25 15:41:06;;;;;;;18.60;5.70;;;;;;;;;;5092895;28;20458;-67
2022/12/25 15:43:33;;;;;;;14.97;6.40;;;;;;;;;;5092217;28;20469;-67
2022/12/25 15:46:00;;;;;;;17.30;6.20;;;;;;;;;;5092642;28;20955;-66
2022/12/25 15:48:27;;;;;;;8.23;5.10;;;;;;;;;;5092683;28;20869;-67
2022/12/25 15:50:54;;;;;;;8.33;5.77;;;;;;;;;;5093013;28;20814;-66
2022/12/25 15:53:21;;;;;;;11.60;6.93;;;;;;;;;;5092720;28;20829;-67
2022/12/25 15:55:50;;;;;;;10.83;6.03;;;;;;;;;;5092272;28;20447;-66
2022/12/25 15:58:17;;;;;;;20.40;13.23;;;;;;;;;;5092578;28;20982;-66
2022/12/25 16:00:44;;;;;;;9.97;5.07;;;;;;;;;;5092652;28;20967;-67
2022/12/25 16:03:11;;;;;;;17.00;9.33;;;;;;;;;;5092780;28;20962;-67
2022/12/25 16:05:38;;;;;;;12.60;5.40;;;;;;;;;;5092047;28;20932;-67
2022/12/25 16:08:05;;;;;;;10.23;5.50;;;;;;;;;;5092380;28;20494;-67
2022/12/25 16:10:32;;;;;;;11.80;8.23;;;;;;;;;;5092561;28;20453;-66
2022/12/25 16:13:01;;;;;;;9.23;6.23;;;;;;;;;;5091919;28;20471;-67
2022/12/25 16:15:28;;;;;;;16.90;5.60;;;;;;;;;;5091977;28;21015;-67
2022/12/25 16:17:55;;;;;;;7.87;5.47;;;;;;;;;;5092192;28;20508;-66
2022/12/25 16:20:22;;;;;;;16.70;5.30;;;;;;;;;;5092617;28;20457;-66
2022/12/25 16:22:49;;;;;;;10.43;5.10;;;;;;;;;;5092414;28;20450;-67
2022/12/25 16:25:18;;;;;;;11.40;5.30;;;;;;;;;;5091830;28;20453;-66
2022/12/25 16:27:46;;;;;;;9.60;4.67;;;;;;;;;;5092165;28;21039;-67
2022/12/25 16:30:16;;;;;;;7.70;5.30;;;;;;;;;;5092465;28;20459;-67
2022/12/25 16:32:44;;;;;;;5.97;4.70;;;;;;;;;;5092366;28;20451;-67